sensor_id;sensor_type;location;lat;lon;timestamp;P1;durP1;ratioP1;P2;durP2;ratioP2
63965;SDS011;50151;52.030;5.350;2023-01-28T00:01:20;5.68;;;4.88;;
63965;SDS011;50151;52.030;5.350;2023-01-28T00:03:50;6.82;;;5.22;;
63965;SDS011;50151;52.030;5.350;2023-01-28T00:06:17;5.50;;;4.63;;
63965;SDS011;50151;52.030;5.350;2023-01-28T00:08:44;6.80;;;5.00;;
63965;SDS011;50151;52.030;5.350;2023-01-28T00:11:11;6.93;;;4.95;;
63965;SDS011;50151;52.030;5.350;2023-01-28T00:13:39;8.27;;;4.95;;
63965;SDS011;50151;52.030;5.350;2023-01-28T00:16:06;6.18;;;5.03;;
63965;SDS011;50151;52.030;5.350;2023-01-28T00:18:36;6.85;;;5.07;;
63965;SDS011;50151;52.030;5.350;2023-01-28T00:21:07;5.93;;;5.00;;
63965;SDS011;50151;52.030;5.350;2023-01-28T00:23:38;10.88;;;5.20;;
63965;SDS011;50151;52.030;5.350;2023-01-28T00:26:06;6.18;;;4.80;;
63965;SDS011;50151;52.030;5.350;2023-01-28T00:28:36;6.82;;;5.32;;
63965;SDS011;50151;52.030;5.350;2023-01-28T00:31:06;6.63;;;5.30;;
63965;SDS011;50151;52.030;5.350;2023-01-28T00:33:35;7.00;;;4.80;;
63965;SDS011;50151;52.030;5.350;2023-01-28T00:36:04;8.07;;;5.72;;
63965;SDS011;50151;52.030;5.350;2023-01-28T00:38:31;6.72;;;5.15;;
63965;SDS011;50151;52.030;5.350;2023-01-28T00:41:09;8.77;;;6.00;;
63965;SDS011;50151;52.030;5.350;2023-01-28T00:43:36;7.13;;;5.60;;
63965;SDS011;50151;52.030;5.350;2023-01-28T00:46:04;8.20;;;5.22;;
63965;SDS011;50151;52.030;5.350;2023-01-28T00:48:35;6.97;;;5.05;;
63965;SDS011;50151;52.030;5.350;2023-01-28T00:51:03;7.18;;;5.60;;
63965;SDS011;50151;52.030;5.350;2023-01-28T00:53:30;7.75;;;5.70;;
63965;SDS011;50151;52.030;5.350;2023-01-28T00:55:59;7.00;;;5.28;;
63965;SDS011;50151;52.030;5.350;2023-01-28T00:58:26;9.38;;;5.75;;
63965;SDS011;50151;52.030;5.350;2023-01-28T01:00:53;7.28;;;5.40;;
63965;SDS011;50151;52.030;5.350;2023-01-28T01:03:19;7.00;;;5.47;;
63965;SDS011;50151;52.030;5.350;2023-01-28T01:05:46;8.90;;;5.82;;
63965;SDS011;50151;52.030;5.350;2023-01-28T01:08:13;8.95;;;5.80;;
63965;SDS011;50151;52.030;5.350;2023-01-28T01:10:40;7.88;;;5.70;;
63965;SDS011;50151;52.030;5.350;2023-01-28T01:13:07;8.32;;;6.18;;
63965;SDS011;50151;52.030;5.350;2023-01-28T01:15:34;8.40;;;5.90;;
63965;SDS011;50151;52.030;5.350;2023-01-28T01:18:01;6.80;;;5.82;;
63965;SDS011;50151;52.030;5.350;2023-01-28T01:20:28;7.30;;;5.43;;
63965;SDS011;50151;52.030;5.350;2023-01-28T01:22:58;8.52;;;5.40;;
63965;SDS011;50151;52.030;5.350;2023-01-28T01:25:25;8.40;;;5.82;;
63965;SDS011;50151;52.030;5.350;2023-01-28T01:27:52;6.75;;;5.60;;
63965;SDS011;50151;52.030;5.350;2023-01-28T01:30:19;6.47;;;5.15;;
63965;SDS011;50151;52.030;5.350;2023-01-28T01:32:46;6.03;;;5.03;;
63965;SDS011;50151;52.030;5.350;2023-01-28T01:35:13;7.05;;;5.60;;
63965;SDS011;50151;52.030;5.350;2023-01-28T01:37:42;6.70;;;5.45;;
63965;SDS011;50151;52.030;5.350;2023-01-28T01:40:09;6.72;;;5.22;;
63965;SDS011;50151;52.030;5.350;2023-01-28T01:42:36;6.97;;;5.60;;
63965;SDS011;50151;52.030;5.350;2023-01-28T01:50:11;7.25;;;5.45;;
63965;SDS011;50151;52.030;5.350;2023-01-28T01:52:38;6.30;;;4.72;;
63965;SDS011;50151;52.030;5.350;2023-01-28T01:55:08;7.90;;;6.07;;
63965;SDS011;50151;52.030;5.350;2023-01-28T01:57:39;7.10;;;5.70;;
63965;SDS011;50151;52.030;5.350;2023-01-28T02:00:08;7.20;;;5.65;;
63965;SDS011;50151;52.030;5.350;2023-01-28T02:02:36;7.15;;;5.57;;
63965;SDS011;50151;52.030;5.350;2023-01-28T02:05:06;7.07;;;5.88;;
63965;SDS011;50151;52.030;5.350;2023-01-28T02:07:35;8.45;;;5.65;;
63965;SDS011;50151;52.030;5.350;2023-01-28T02:10:03;7.20;;;5.57;;
63965;SDS011;50151;52.030;5.350;2023-01-28T02:12:33;9.73;;;5.63;;
63965;SDS011;50151;52.030;5.350;2023-01-28T02:15:04;7.63;;;5.43;;
63965;SDS011;50151;52.030;5.350;2023-01-28T02:17:36;7.05;;;5.28;;
63965;SDS011;50151;52.030;5.350;2023-01-28T02:20:07;7.20;;;5.80;;
63965;SDS011;50151;52.030;5.350;2023-01-28T02:25:22;7.32;;;5.85;;
63965;SDS011;50151;52.030;5.350;2023-01-28T02:33:35;7.22;;;5.50;;
63965;SDS011;50151;52.030;5.350;2023-01-28T02:36:21;7.20;;;5.75;;
63965;SDS011;50151;52.030;5.350;2023-01-28T02:38:55;6.57;;;5.43;;
63965;SDS011;50151;52.030;5.350;2023-01-28T02:41:28;6.70;;;5.80;;
63965;SDS011;50151;52.030;5.350;2023-01-28T02:44:02;7.00;;;5.55;;
63965;SDS011;50151;52.030;5.350;2023-01-28T02:49:19;6.72;;;5.30;;
63965;SDS011;50151;52.030;5.350;2023-01-28T02:55:25;7.57;;;5.88;;
63965;SDS011;50151;52.030;5.350;2023-01-28T03:01:19;7.78;;;5.45;;
63965;SDS011;50151;52.030;5.350;2023-01-28T03:06:25;6.35;;;4.97;;
63965;SDS011;50151;52.030;5.350;2023-01-28T03:08:59;7.22;;;5.57;;
63965;SDS011;50151;52.030;5.350;2023-01-28T03:11:49;6.43;;;5.28;;
63965;SDS011;50151;52.030;5.350;2023-01-28T03:14:59;5.93;;;4.95;;
63965;SDS011;50151;52.030;5.350;2023-01-28T03:21:16;7.05;;;5.85;;
63965;SDS011;50151;52.030;5.350;2023-01-28T03:24:19;6.93;;;5.40;;
63965;SDS011;50151;52.030;5.350;2023-01-28T03:27:12;6.57;;;5.45;;
63965;SDS011;50151;52.030;5.350;2023-01-28T03:30:18;10.63;;;5.90;;
63965;SDS011;50151;52.030;5.350;2023-01-28T03:33:07;8.18;;;5.63;;
63965;SDS011;50151;52.030;5.350;2023-01-28T03:35:54;7.90;;;5.80;;
63965;SDS011;50151;52.030;5.350;2023-01-28T03:38:42;7.38;;;5.85;;
63965;SDS011;50151;52.030;5.350;2023-01-28T03:41:19;7.40;;;5.57;;
63965;SDS011;50151;52.030;5.350;2023-01-28T03:43:47;7.38;;;6.07;;
63965;SDS011;50151;52.030;5.350;2023-01-28T03:46:14;6.95;;;5.45;;
63965;SDS011;50151;52.030;5.350;2023-01-28T03:48:41;6.20;;;5.47;;
63965;SDS011;50151;52.030;5.350;2023-01-28T03:51:08;7.05;;;5.70;;
63965;SDS011;50151;52.030;5.350;2023-01-28T03:53:35;9.75;;;6.07;;
63965;SDS011;50151;52.030;5.350;2023-01-28T03:56:02;7.38;;;5.72;;
63965;SDS011;50151;52.030;5.350;2023-01-28T03:58:29;6.68;;;5.47;;
63965;SDS011;50151;52.030;5.350;2023-01-28T04:01:11;7.22;;;5.88;;
63965;SDS011;50151;52.030;5.350;2023-01-28T04:03:38;6.22;;;5.15;;
63965;SDS011;50151;52.030;5.350;2023-01-28T04:06:06;6.97;;;5.50;;
63965;SDS011;50151;52.030;5.350;2023-01-28T04:08:34;7.50;;;5.80;;
63965;SDS011;50151;52.030;5.350;2023-01-28T04:11:01;7.05;;;5.68;;
63965;SDS011;50151;52.030;5.350;2023-01-28T04:13:41;7.07;;;5.78;;
63965;SDS011;50151;52.030;5.350;2023-01-28T04:16:07;10.48;;;6.20;;
63965;SDS011;50151;52.030;5.350;2023-01-28T04:18:35;8.68;;;5.80;;
63965;SDS011;50151;52.030;5.350;2023-01-28T04:21:01;7.30;;;5.85;;
63965;SDS011;50151;52.030;5.350;2023-01-28T04:23:28;7.38;;;5.97;;
63965;SDS011;50151;52.030;5.350;2023-01-28T04:25:55;7.43;;;5.95;;
63965;SDS011;50151;52.030;5.350;2023-01-28T04:28:22;7.25;;;5.75;;
63965;SDS011;50151;52.030;5.350;2023-01-28T04:30:50;8.45;;;6.15;;
63965;SDS011;50151;52.030;5.350;2023-01-28T04:33:17;8.43;;;6.20;;
63965;SDS011;50151;52.030;5.350;2023-01-28T04:35:44;8.00;;;6.13;;
63965;SDS011;50151;52.030;5.350;2023-01-28T04:38:11;7.05;;;5.85;;
63965;SDS011;50151;52.030;5.350;2023-01-28T04:40:37;8.23;;;6.40;;
63965;SDS011;50151;52.030;5.350;2023-01-28T04:43:04;7.65;;;5.88;;
63965;SDS011;50151;52.030;5.350;2023-01-28T04:45:31;7.63;;;6.13;;
63965;SDS011;50151;52.030;5.350;2023-01-28T04:47:57;8.50;;;5.88;;
63965;SDS011;50151;52.030;5.350;2023-01-28T04:50:24;7.07;;;5.75;;
63965;SDS011;50151;52.030;5.350;2023-01-28T04:52:51;8.70;;;5.82;;
63965;SDS011;50151;52.030;5.350;2023-01-28T04:55:18;6.85;;;5.80;;
63965;SDS011;50151;52.030;5.350;2023-01-28T04:57:45;7.32;;;5.72;;
63965;SDS011;50151;52.030;5.350;2023-01-28T05:00:13;10.30;;;6.05;;
63965;SDS011;50151;52.030;5.350;2023-01-28T05:02:40;7.45;;;5.97;;
63965;SDS011;50151;52.030;5.350;2023-01-28T05:05:07;10.95;;;6.00;;
63965;SDS011;50151;52.030;5.350;2023-01-28T05:07:34;7.88;;;5.25;;
63965;SDS011;50151;52.030;5.350;2023-01-28T05:10:01;8.40;;;5.65;;
63965;SDS011;50151;52.030;5.350;2023-01-28T05:12:28;8.13;;;6.53;;
63965;SDS011;50151;52.030;5.350;2023-01-28T05:14:58;10.43;;;5.80;;
63965;SDS011;50151;52.030;5.350;2023-01-28T05:17:26;7.40;;;5.68;;
63965;SDS011;50151;52.030;5.350;2023-01-28T05:19:53;7.40;;;5.90;;
63965;SDS011;50151;52.030;5.350;2023-01-28T05:22:20;7.85;;;5.70;;
63965;SDS011;50151;52.030;5.350;2023-01-28T05:24:47;6.50;;;5.35;;
63965;SDS011;50151;52.030;5.350;2023-01-28T05:27:13;6.60;;;5.40;;
63965;SDS011;50151;52.030;5.350;2023-01-28T05:29:40;7.20;;;5.10;;
63965;SDS011;50151;52.030;5.350;2023-01-28T05:32:07;7.93;;;5.88;;
63965;SDS011;50151;52.030;5.350;2023-01-28T05:34:34;6.70;;;5.35;;
63965;SDS011;50151;52.030;5.350;2023-01-28T05:37:01;7.10;;;5.78;;
63965;SDS011;50151;52.030;5.350;2023-01-28T05:39:28;7.07;;;5.78;;
63965;SDS011;50151;52.030;5.350;2023-01-28T05:41:54;7.95;;;5.30;;
63965;SDS011;50151;52.030;5.350;2023-01-28T05:44:21;6.45;;;5.35;;
63965;SDS011;50151;52.030;5.350;2023-01-28T05:46:48;6.63;;;5.57;;
63965;SDS011;50151;52.030;5.350;2023-01-28T05:49:14;6.97;;;5.68;;
63965;SDS011;50151;52.030;5.350;2023-01-28T05:51:41;6.88;;;5.32;;
63965;SDS011;50151;52.030;5.350;2023-01-28T05:54:08;7.07;;;5.32;;
63965;SDS011;50151;52.030;5.350;2023-01-28T05:56:35;7.28;;;5.35;;
63965;SDS011;50151;52.030;5.350;2023-01-28T05:59:02;6.45;;;5.20;;
63965;SDS011;50151;52.030;5.350;2023-01-28T06:01:30;7.18;;;5.95;;
63965;SDS011;50151;52.030;5.350;2023-01-28T06:03:59;8.43;;;5.53;;
63965;SDS011;50151;52.030;5.350;2023-01-28T06:06:26;6.70;;;5.30;;
63965;SDS011;50151;52.030;5.350;2023-01-28T06:08:53;9.35;;;5.88;;
63965;SDS011;50151;52.030;5.350;2023-01-28T06:11:19;7.57;;;5.50;;
63965;SDS011;50151;52.030;5.350;2023-01-28T06:13:46;7.32;;;5.80;;
63965;SDS011;50151;52.030;5.350;2023-01-28T06:16:13;6.30;;;5.30;;
63965;SDS011;50151;52.030;5.350;2023-01-28T06:18:40;8.35;;;5.88;;
63965;SDS011;50151;52.030;5.350;2023-01-28T06:21:06;6.72;;;5.63;;
63965;SDS011;50151;52.030;5.350;2023-01-28T06:23:33;7.63;;;5.57;;
63965;SDS011;50151;52.030;5.350;2023-01-28T06:26:00;7.03;;;5.57;;
63965;SDS011;50151;52.030;5.350;2023-01-28T06:28:27;8.30;;;5.82;;
63965;SDS011;50151;52.030;5.350;2023-01-28T06:30:53;7.80;;;6.03;;
63965;SDS011;50151;52.030;5.350;2023-01-28T06:33:20;10.20;;;5.88;;
63965;SDS011;50151;52.030;5.350;2023-01-28T06:35:47;7.65;;;5.70;;
63965;SDS011;50151;52.030;5.350;2023-01-28T06:38:14;8.63;;;5.95;;
63965;SDS011;50151;52.030;5.350;2023-01-28T06:40:41;7.55;;;5.75;;
63965;SDS011;50151;52.030;5.350;2023-01-28T06:43:08;9.20;;;5.65;;
63965;SDS011;50151;52.030;5.350;2023-01-28T06:45:35;7.68;;;5.85;;
63965;SDS011;50151;52.030;5.350;2023-01-28T06:48:01;8.13;;;5.53;;
63965;SDS011;50151;52.030;5.350;2023-01-28T06:50:29;7.43;;;5.97;;
63965;SDS011;50151;52.030;5.350;2023-01-28T06:52:56;8.02;;;6.00;;
63965;SDS011;50151;52.030;5.350;2023-01-28T06:55:22;8.75;;;5.93;;
63965;SDS011;50151;52.030;5.350;2023-01-28T06:57:49;7.55;;;5.35;;
63965;SDS011;50151;52.030;5.350;2023-01-28T07:00:16;7.63;;;6.05;;
63965;SDS011;50151;52.030;5.350;2023-01-28T07:02:43;7.55;;;5.93;;
63965;SDS011;50151;52.030;5.350;2023-01-28T07:05:10;7.93;;;5.55;;
63965;SDS011;50151;52.030;5.350;2023-01-28T07:07:37;8.43;;;6.00;;
63965;SDS011;50151;52.030;5.350;2023-01-28T07:10:07;8.43;;;6.15;;
63965;SDS011;50151;52.030;5.350;2023-01-28T07:12:34;13.85;;;6.28;;
63965;SDS011;50151;52.030;5.350;2023-01-28T07:15:01;11.43;;;6.05;;
63965;SDS011;50151;52.030;5.350;2023-01-28T07:17:28;7.40;;;5.82;;
63965;SDS011;50151;52.030;5.350;2023-01-28T07:19:55;9.95;;;6.70;;
63965;SDS011;50151;52.030;5.350;2023-01-28T07:22:21;8.70;;;6.28;;
63965;SDS011;50151;52.030;5.350;2023-01-28T07:24:48;9.38;;;5.80;;
63965;SDS011;50151;52.030;5.350;2023-01-28T07:27:15;7.70;;;6.10;;
63965;SDS011;50151;52.030;5.350;2023-01-28T07:29:41;7.38;;;5.90;;
63965;SDS011;50151;52.030;5.350;2023-01-28T07:32:08;7.55;;;5.82;;
63965;SDS011;50151;52.030;5.350;2023-01-28T07:34:35;8.48;;;5.53;;
63965;SDS011;50151;52.030;5.350;2023-01-28T07:37:04;8.27;;;6.10;;
63965;SDS011;50151;52.030;5.350;2023-01-28T07:39:31;7.72;;;5.72;;
63965;SDS011;50151;52.030;5.350;2023-01-28T07:42:00;8.23;;;6.00;;
63965;SDS011;50151;52.030;5.350;2023-01-28T07:44:27;9.30;;;6.57;;
63965;SDS011;50151;52.030;5.350;2023-01-28T07:46:54;7.85;;;6.35;;
63965;SDS011;50151;52.030;5.350;2023-01-28T07:49:20;7.55;;;5.97;;
63965;SDS011;50151;52.030;5.350;2023-01-28T07:51:47;8.20;;;6.18;;
63965;SDS011;50151;52.030;5.350;2023-01-28T07:54:16;7.78;;;6.13;;
63965;SDS011;50151;52.030;5.350;2023-01-28T07:56:43;9.20;;;6.82;;
63965;SDS011;50151;52.030;5.350;2023-01-28T07:59:10;8.15;;;6.60;;
63965;SDS011;50151;52.030;5.350;2023-01-28T08:01:40;9.05;;;6.25;;
63965;SDS011;50151;52.030;5.350;2023-01-28T08:04:07;8.50;;;6.55;;
63965;SDS011;50151;52.030;5.350;2023-01-28T08:06:34;8.02;;;6.18;;
63965;SDS011;50151;52.030;5.350;2023-01-28T08:09:05;9.68;;;6.68;;
63965;SDS011;50151;52.030;5.350;2023-01-28T08:11:36;8.60;;;6.97;;
63965;SDS011;50151;52.030;5.350;2023-01-28T08:14:05;9.70;;;7.00;;
63965;SDS011;50151;52.030;5.350;2023-01-28T08:16:32;8.65;;;6.38;;
63965;SDS011;50151;52.030;5.350;2023-01-28T08:18:59;8.43;;;6.28;;
63965;SDS011;50151;52.030;5.350;2023-01-28T08:21:26;10.13;;;6.05;;
63965;SDS011;50151;52.030;5.350;2023-01-28T08:23:53;11.30;;;6.40;;
63965;SDS011;50151;52.030;5.350;2023-01-28T08:26:22;8.35;;;6.20;;
63965;SDS011;50151;52.030;5.350;2023-01-28T08:28:51;8.48;;;6.53;;
63965;SDS011;50151;52.030;5.350;2023-01-28T08:31:18;10.25;;;7.10;;
63965;SDS011;50151;52.030;5.350;2023-01-28T08:33:48;8.65;;;6.68;;
63965;SDS011;50151;52.030;5.350;2023-01-28T08:36:15;8.13;;;6.45;;
63965;SDS011;50151;52.030;5.350;2023-01-28T08:38:42;9.45;;;6.72;;
63965;SDS011;50151;52.030;5.350;2023-01-28T08:41:09;8.18;;;6.10;;
63965;SDS011;50151;52.030;5.350;2023-01-28T08:43:36;9.52;;;6.60;;
63965;SDS011;50151;52.030;5.350;2023-01-28T08:46:06;9.57;;;6.65;;
63965;SDS011;50151;52.030;5.350;2023-01-28T08:48:33;9.32;;;6.28;;
63965;SDS011;50151;52.030;5.350;2023-01-28T08:51:00;13.20;;;7.43;;
63965;SDS011;50151;52.030;5.350;2023-01-28T08:53:27;8.95;;;5.80;;
63965;SDS011;50151;52.030;5.350;2023-01-28T08:55:54;9.25;;;6.60;;
63965;SDS011;50151;52.030;5.350;2023-01-28T08:58:21;10.63;;;7.07;;
63965;SDS011;50151;52.030;5.350;2023-01-28T09:00:48;9.20;;;6.65;;
63965;SDS011;50151;52.030;5.350;2023-01-28T09:03:16;7.68;;;5.78;;
63965;SDS011;50151;52.030;5.350;2023-01-28T09:05:43;8.82;;;6.60;;
63965;SDS011;50151;52.030;5.350;2023-01-28T09:08:12;7.50;;;5.70;;
63965;SDS011;50151;52.030;5.350;2023-01-28T09:10:40;10.27;;;5.75;;
63965;SDS011;50151;52.030;5.350;2023-01-28T09:13:09;7.30;;;5.68;;
63965;SDS011;50151;52.030;5.350;2023-01-28T09:15:38;7.68;;;5.90;;
63965;SDS011;50151;52.030;5.350;2023-01-28T09:18:06;8.27;;;5.60;;
63965;SDS011;50151;52.030;5.350;2023-01-28T09:20:33;7.85;;;5.60;;
63965;SDS011;50151;52.030;5.350;2023-01-28T09:23:01;7.07;;;5.05;;
63965;SDS011;50151;52.030;5.350;2023-01-28T09:25:28;9.00;;;5.72;;
63965;SDS011;50151;52.030;5.350;2023-01-28T09:27:56;10.40;;;5.72;;
63965;SDS011;50151;52.030;5.350;2023-01-28T09:30:24;7.15;;;5.40;;
63965;SDS011;50151;52.030;5.350;2023-01-28T09:32:51;7.35;;;5.38;;
63965;SDS011;50151;52.030;5.350;2023-01-28T09:35:19;8.43;;;5.75;;
63965;SDS011;50151;52.030;5.350;2023-01-28T09:37:47;9.23;;;5.57;;
63965;SDS011;50151;52.030;5.350;2023-01-28T09:40:24;6.90;;;5.57;;
63965;SDS011;50151;52.030;5.350;2023-01-28T09:45:55;7.15;;;5.40;;
63965;SDS011;50151;52.030;5.350;2023-01-28T09:48:27;8.98;;;5.15;;
63965;SDS011;50151;52.030;5.350;2023-01-28T09:50:58;8.30;;;5.13;;
63965;SDS011;50151;52.030;5.350;2023-01-28T09:53:30;6.93;;;4.88;;
63965;SDS011;50151;52.030;5.350;2023-01-28T09:56:01;7.10;;;4.93;;
63965;SDS011;50151;52.030;5.350;2023-01-28T09:58:38;7.90;;;5.20;;
63965;SDS011;50151;52.030;5.350;2023-01-28T10:09:07;6.03;;;4.70;;
63965;SDS011;50151;52.030;5.350;2023-01-28T10:11:41;5.90;;;4.45;;
63965;SDS011;50151;52.030;5.350;2023-01-28T10:17:18;6.28;;;4.60;;
63965;SDS011;50151;52.030;5.350;2023-01-28T10:20:00;7.70;;;4.32;;
63965;SDS011;50151;52.030;5.350;2023-01-28T10:23:16;6.95;;;4.55;;
63965;SDS011;50151;52.030;5.350;2023-01-28T10:25:47;6.88;;;3.92;;
63965;SDS011;50151;52.030;5.350;2023-01-28T10:28:19;5.97;;;3.25;;
63965;SDS011;50151;52.030;5.350;2023-01-28T10:30:49;5.57;;;3.97;;
63965;SDS011;50151;52.030;5.350;2023-01-28T10:33:18;5.55;;;3.67;;
63965;SDS011;50151;52.030;5.350;2023-01-28T10:35:56;5.50;;;3.90;;
63965;SDS011;50151;52.030;5.350;2023-01-28T10:38:23;6.22;;;3.88;;
63965;SDS011;50151;52.030;5.350;2023-01-28T10:40:52;5.20;;;3.33;;
63965;SDS011;50151;52.030;5.350;2023-01-28T10:43:24;6.63;;;3.15;;
63965;SDS011;50151;52.030;5.350;2023-01-28T10:46:03;5.25;;;3.70;;
63965;SDS011;50151;52.030;5.350;2023-01-28T10:48:41;7.93;;;3.73;;
63965;SDS011;50151;52.030;5.350;2023-01-28T10:51:14;9.18;;;4.00;;
63965;SDS011;50151;52.030;5.350;2023-01-28T10:53:44;6.35;;;3.88;;
63965;SDS011;50151;52.030;5.350;2023-01-28T10:56:15;6.00;;;3.80;;
63965;SDS011;50151;52.030;5.350;2023-01-28T11:04:44;7.80;;;3.47;;
63965;SDS011;50151;52.030;5.350;2023-01-28T11:07:15;5.75;;;3.78;;
63965;SDS011;50151;52.030;5.350;2023-01-28T11:09:48;5.32;;;3.38;;
63965;SDS011;50151;52.030;5.350;2023-01-28T11:12:18;5.97;;;3.50;;
63965;SDS011;50151;52.030;5.350;2023-01-28T11:14:51;4.78;;;3.40;;
63965;SDS011;50151;52.030;5.350;2023-01-28T11:17:26;9.75;;;3.63;;
63965;SDS011;50151;52.030;5.350;2023-01-28T11:19:57;9.60;;;3.95;;
63965;SDS011;50151;52.030;5.350;2023-01-28T11:25:02;6.10;;;3.53;;
63965;SDS011;50151;52.030;5.350;2023-01-28T11:27:33;5.68;;;3.75;;
63965;SDS011;50151;52.030;5.350;2023-01-28T11:30:00;5.15;;;3.33;;
63965;SDS011;50151;52.030;5.350;2023-01-28T11:32:29;4.82;;;3.30;;
63965;SDS011;50151;52.030;5.350;2023-01-28T11:34:56;3.90;;;2.80;;
63965;SDS011;50151;52.030;5.350;2023-01-28T11:37:26;5.18;;;2.55;;
63965;SDS011;50151;52.030;5.350;2023-01-28T11:40:01;6.30;;;3.20;;
63965;SDS011;50151;52.030;5.350;2023-01-28T11:42:48;4.38;;;2.88;;
63965;SDS011;50151;52.030;5.350;2023-01-28T11:45:17;5.80;;;3.17;;
63965;SDS011;50151;52.030;5.350;2023-01-28T11:47:57;8.10;;;3.03;;
63965;SDS011;50151;52.030;5.350;2023-01-28T11:51:00;6.65;;;3.35;;
63965;SDS011;50151;52.030;5.350;2023-01-28T11:54:00;4.32;;;2.83;;
63965;SDS011;50151;52.030;5.350;2023-01-28T11:56:52;6.90;;;3.05;;
63965;SDS011;50151;52.030;5.350;2023-01-28T12:04:50;3.80;;;2.47;;
63965;SDS011;50151;52.030;5.350;2023-01-28T12:10:08;4.80;;;2.90;;
63965;SDS011;50151;52.030;5.350;2023-01-28T12:23:32;5.75;;;3.20;;
63965;SDS011;50151;52.030;5.350;2023-01-28T12:26:14;5.28;;;3.28;;
63965;SDS011;50151;52.030;5.350;2023-01-28T12:31:27;9.27;;;3.40;;
63965;SDS011;50151;52.030;5.350;2023-01-28T12:39:28;6.40;;;2.95;;
63965;SDS011;50151;52.030;5.350;2023-01-28T12:42:31;5.10;;;3.28;;
63965;SDS011;50151;52.030;5.350;2023-01-28T12:45:19;4.88;;;2.92;;
63965;SDS011;50151;52.030;5.350;2023-01-28T12:47:57;4.18;;;3.10;;
63965;SDS011;50151;52.030;5.350;2023-01-28T12:50:35;4.55;;;3.22;;
63965;SDS011;50151;52.030;5.350;2023-01-28T12:55:59;4.43;;;3.05;;
63965;SDS011;50151;52.030;5.350;2023-01-28T13:01:16;5.45;;;3.20;;
63965;SDS011;50151;52.030;5.350;2023-01-28T13:06:37;5.90;;;3.17;;
63965;SDS011;50151;52.030;5.350;2023-01-28T13:09:15;4.20;;;2.95;;
63965;SDS011;50151;52.030;5.350;2023-01-28T13:11:44;7.53;;;3.35;;
63965;SDS011;50151;52.030;5.350;2023-01-28T13:14:14;5.10;;;3.38;;
63965;SDS011;50151;52.030;5.350;2023-01-28T13:16:41;5.97;;;3.60;;
63965;SDS011;50151;52.030;5.350;2023-01-28T13:21:46;7.03;;;3.10;;
63965;SDS011;50151;52.030;5.350;2023-01-28T13:26:43;6.65;;;2.90;;
63965;SDS011;50151;52.030;5.350;2023-01-28T13:31:42;5.85;;;3.33;;
63965;SDS011;50151;52.030;5.350;2023-01-28T13:39:57;5.45;;;3.60;;
63965;SDS011;50151;52.030;5.350;2023-01-28T13:42:32;4.05;;;3.15;;
63965;SDS011;50151;52.030;5.350;2023-01-28T13:45:17;5.93;;;3.00;;
63965;SDS011;50151;52.030;5.350;2023-01-28T13:47:52;5.07;;;3.35;;
63965;SDS011;50151;52.030;5.350;2023-01-28T13:50:24;6.68;;;3.40;;
63965;SDS011;50151;52.030;5.350;2023-01-28T13:53:05;7.47;;;5.00;;
63965;SDS011;50151;52.030;5.350;2023-01-28T13:55:45;8.80;;;4.50;;
63965;SDS011;50151;52.030;5.350;2023-01-28T14:01:22;5.15;;;3.90;;
63965;SDS011;50151;52.030;5.350;2023-01-28T14:10:07;5.88;;;4.28;;
63965;SDS011;50151;52.030;5.350;2023-01-28T14:12:46;6.85;;;4.60;;
63965;SDS011;50151;52.030;5.350;2023-01-28T14:17:49;5.43;;;4.22;;
63965;SDS011;50151;52.030;5.350;2023-01-28T14:20:19;5.50;;;4.32;;
63965;SDS011;50151;52.030;5.350;2023-01-28T14:22:58;6.45;;;4.28;;
63965;SDS011;50151;52.030;5.350;2023-01-28T14:25:50;5.45;;;3.92;;
63965;SDS011;50151;52.030;5.350;2023-01-28T14:31:22;6.43;;;3.80;;
63965;SDS011;50151;52.030;5.350;2023-01-28T14:33:54;9.40;;;4.35;;
63965;SDS011;50151;52.030;5.350;2023-01-28T14:36:30;8.30;;;4.15;;
63965;SDS011;50151;52.030;5.350;2023-01-28T14:38:57;6.22;;;3.95;;
63965;SDS011;50151;52.030;5.350;2023-01-28T14:41:24;6.57;;;4.03;;
63965;SDS011;50151;52.030;5.350;2023-01-28T14:43:55;8.10;;;4.78;;
63965;SDS011;50151;52.030;5.350;2023-01-28T14:46:46;6.13;;;3.92;;
63965;SDS011;50151;52.030;5.350;2023-01-28T14:49:23;8.02;;;4.13;;
63965;SDS011;50151;52.030;5.350;2023-01-28T14:57:28;5.43;;;4.28;;
63965;SDS011;50151;52.030;5.350;2023-01-28T15:00:16;7.60;;;4.60;;
63965;SDS011;50151;52.030;5.350;2023-01-28T15:02:48;6.05;;;4.50;;
63965;SDS011;50151;52.030;5.350;2023-01-28T15:05:17;5.93;;;4.20;;
63965;SDS011;50151;52.030;5.350;2023-01-28T15:07:52;6.95;;;4.32;;
63965;SDS011;50151;52.030;5.350;2023-01-28T15:10:26;4.65;;;3.72;;
63965;SDS011;50151;52.030;5.350;2023-01-28T15:12:57;11.50;;;4.30;;
63965;SDS011;50151;52.030;5.350;2023-01-28T15:15:40;7.75;;;4.20;;
63965;SDS011;50151;52.030;5.350;2023-01-28T15:18:15;5.85;;;4.15;;
63965;SDS011;50151;52.030;5.350;2023-01-28T15:20:45;4.97;;;3.65;;
63965;SDS011;50151;52.030;5.350;2023-01-28T15:23:14;9.55;;;5.18;;
63965;SDS011;50151;52.030;5.350;2023-01-28T15:25:43;11.02;;;4.53;;
63965;SDS011;50151;52.030;5.350;2023-01-28T15:28:16;5.88;;;4.07;;
63965;SDS011;50151;52.030;5.350;2023-01-28T15:30:55;5.95;;;3.67;;
63965;SDS011;50151;52.030;5.350;2023-01-28T15:33:22;4.57;;;3.35;;
63965;SDS011;50151;52.030;5.350;2023-01-28T15:35:50;4.40;;;3.65;;
63965;SDS011;50151;52.030;5.350;2023-01-28T15:38:25;6.65;;;3.95;;
63965;SDS011;50151;52.030;5.350;2023-01-28T15:40:54;7.63;;;3.83;;
63965;SDS011;50151;52.030;5.350;2023-01-28T15:43:30;5.93;;;3.80;;
63965;SDS011;50151;52.030;5.350;2023-01-28T15:46:01;5.97;;;4.10;;
63965;SDS011;50151;52.030;5.350;2023-01-28T15:48:32;6.60;;;3.70;;
63965;SDS011;50151;52.030;5.350;2023-01-28T15:51:04;5.57;;;4.20;;
63965;SDS011;50151;52.030;5.350;2023-01-28T15:53:35;5.63;;;3.83;;
63965;SDS011;50151;52.030;5.350;2023-01-28T15:56:11;6.50;;;4.32;;
63965;SDS011;50151;52.030;5.350;2023-01-28T15:58:40;7.20;;;4.28;;
63965;SDS011;50151;52.030;5.350;2023-01-28T16:03:39;7.90;;;4.60;;
63965;SDS011;50151;52.030;5.350;2023-01-28T16:06:09;8.63;;;5.15;;
63965;SDS011;50151;52.030;5.350;2023-01-28T16:08:57;9.57;;;6.03;;
63965;SDS011;50151;52.030;5.350;2023-01-28T16:11:34;8.45;;;5.50;;
63965;SDS011;50151;52.030;5.350;2023-01-28T16:14:03;8.30;;;5.07;;
63965;SDS011;50151;52.030;5.350;2023-01-28T16:16:31;7.18;;;4.93;;
63965;SDS011;50151;52.030;5.350;2023-01-28T16:19:01;9.35;;;5.15;;
63965;SDS011;50151;52.030;5.350;2023-01-28T16:21:33;7.22;;;4.65;;
63965;SDS011;50151;52.030;5.350;2023-01-28T16:24:20;5.93;;;4.30;;
63965;SDS011;50151;52.030;5.350;2023-01-28T16:27:00;8.82;;;4.30;;
63965;SDS011;50151;52.030;5.350;2023-01-28T16:29:29;8.10;;;4.88;;
63965;SDS011;50151;52.030;5.350;2023-01-28T16:31:56;9.20;;;5.03;;
63965;SDS011;50151;52.030;5.350;2023-01-28T16:34:25;7.30;;;4.90;;
63965;SDS011;50151;52.030;5.350;2023-01-28T16:36:58;7.07;;;5.00;;
63965;SDS011;50151;52.030;5.350;2023-01-28T16:39:28;9.52;;;5.40;;
63965;SDS011;50151;52.030;5.350;2023-01-28T16:41:55;9.07;;;5.07;;
63965;SDS011;50151;52.030;5.350;2023-01-28T16:44:23;11.10;;;6.00;;
63965;SDS011;50151;52.030;5.350;2023-01-28T16:46:50;8.10;;;5.05;;
63965;SDS011;50151;52.030;5.350;2023-01-28T16:49:16;10.05;;;4.97;;
63965;SDS011;50151;52.030;5.350;2023-01-28T16:51:43;8.15;;;4.72;;
63965;SDS011;50151;52.030;5.350;2023-01-28T16:54:11;6.68;;;4.28;;
63965;SDS011;50151;52.030;5.350;2023-01-28T16:56:40;11.00;;;6.18;;
63965;SDS011;50151;52.030;5.350;2023-01-28T16:59:11;7.55;;;5.15;;
63965;SDS011;50151;52.030;5.350;2023-01-28T17:01:40;8.18;;;6.10;;
63965;SDS011;50151;52.030;5.350;2023-01-28T17:04:06;8.77;;;5.68;;
63965;SDS011;50151;52.030;5.350;2023-01-28T17:06:38;6.82;;;5.28;;
63965;SDS011;50151;52.030;5.350;2023-01-28T17:09:10;9.93;;;5.97;;
63965;SDS011;50151;52.030;5.350;2023-01-28T17:11:38;7.45;;;5.22;;
63965;SDS011;50151;52.030;5.350;2023-01-28T17:14:06;11.40;;;6.65;;